createdAt,value
2017-09-29T00:00:29.568Z,27.73
2017-09-29T00:03:05.002Z,28.40
2017-09-29T00:05:32.510Z,28.90
2017-09-29T00:08:00.060Z,32.13
2017-09-29T00:10:27.576Z,30.30
2017-09-29T00:12:55.390Z,20.88
2017-09-29T00:15:23.270Z,33.33
2017-09-29T00:17:51.072Z,33.08
2017-09-29T00:20:18.602Z,39.23
2017-09-29T00:22:46.184Z,29.70
2017-09-29T00:25:13.698Z,24.65
2017-09-29T00:27:41.207Z,30.33
2017-09-29T00:30:10.456Z,23.45
2017-09-29T00:32:38.227Z,27.93
2017-09-29T00:35:05.744Z,22.40
2017-09-29T00:37:33.311Z,28.23
2017-09-29T00:40:00.921Z,21.43
2017-09-29T00:42:29.355Z,14.75
2017-09-29T00:44:57.727Z,20.70
2017-09-29T00:47:25.239Z,24.87
2017-09-29T00:49:59.987Z,22.53
2017-09-29T00:52:27.516Z,23.65
2017-09-29T00:54:55.032Z,31.23
2017-09-29T00:57:22.650Z,23.37
2017-09-29T00:59:50.163Z,29.67
2017-09-29T01:02:17.673Z,33.67
2017-09-29T01:04:49.803Z,28.93
2017-09-29T01:07:18.493Z,24.40
2017-09-29T01:09:46.228Z,27.92
2017-09-29T01:12:15.222Z,33.65
2017-09-29T01:14:43.004Z,34.10
2017-09-29T01:17:10.767Z,41.27
2017-09-29T01:19:38.928Z,42.53
2017-09-29T01:22:06.443Z,38.10
2017-09-29T01:24:33.971Z,35.22
2017-09-29T01:27:01.523Z,30.13
2017-09-29T01:29:29.063Z,25.95
2017-09-29T01:31:56.581Z,35.40
2017-09-29T01:34:27.039Z,39.00
2017-09-29T01:36:55.324Z,37.08
2017-09-29T01:39:22.909Z,43.70
2017-09-29T01:41:50.431Z,34.17
2017-09-29T01:44:18.616Z,36.63
2017-09-29T01:46:46.371Z,38.90
2017-09-29T01:49:17.241Z,41.10
2017-09-29T01:51:44.804Z,44.72
2017-09-29T01:54:12.303Z,41.90
2017-09-29T01:56:40.174Z,35.50
2017-09-29T01:59:07.735Z,46.15
2017-09-29T02:01:35.253Z,37.47
2017-09-29T02:04:02.755Z,36.70
2017-09-29T02:06:31.284Z,43.10
2017-09-29T02:08:58.806Z,36.85
2017-09-29T02:11:27.222Z,35.17
2017-09-29T02:13:55.131Z,32.13
2017-09-29T02:16:22.717Z,34.27
2017-09-29T02:18:50.443Z,35.22
2017-09-29T02:21:17.975Z,35.60
2017-09-29T02:23:45.528Z,41.77
2017-09-29T02:26:13.368Z,39.70
2017-09-29T02:28:41.677Z,38.67
2017-09-29T02:31:09.385Z,39.40
2017-09-29T02:33:37.250Z,41.60
2017-09-29T02:36:04.810Z,38.20
2017-09-29T02:38:32.783Z,39.40
2017-09-29T02:41:00.303Z,38.00
2017-09-29T02:43:28.348Z,41.20
2017-09-29T02:45:55.877Z,42.53
2017-09-29T02:48:24.215Z,43.40
2017-09-29T02:50:51.742Z,41.83
2017-09-29T02:53:19.275Z,37.08
2017-09-29T02:55:47.795Z,43.77
2017-09-29T02:58:17.346Z,37.57
2017-09-29T03:00:53.671Z,33.80
2017-09-29T03:03:23.683Z,42.40
2017-09-29T03:05:57.179Z,41.90
2017-09-29T03:08:25.197Z,45.40
2017-09-29T03:10:52.768Z,43.90
2017-09-29T03:13:20.615Z,39.60
2017-09-29T03:15:48.132Z,44.40
2017-09-29T03:18:15.667Z,40.70
2017-09-29T03:20:44.868Z,37.93
2017-09-29T03:23:13.170Z,47.17
2017-09-29T03:25:41.228Z,40.63
2017-09-29T03:28:10.002Z,48.50
2017-09-29T03:30:39.200Z,34.20
2017-09-29T03:33:06.739Z,38.72
2017-09-29T03:35:34.447Z,37.57
2017-09-29T03:38:02.212Z,41.70
2017-09-29T03:40:29.938Z,40.03
2017-09-29T03:42:57.791Z,40.73
2017-09-29T03:45:25.588Z,33.97
2017-09-29T03:47:53.139Z,46.40
2017-09-29T03:50:22.791Z,41.97
2017-09-29T03:52:52.530Z,42.40
2017-09-29T03:55:22.372Z,42.67
2017-09-29T03:57:52.442Z,39.63
2017-09-29T04:00:20.324Z,35.85
2017-09-29T04:02:48.507Z,42.83
2017-09-29T04:05:16.016Z,50.83
2017-09-29T04:07:43.570Z,38.67
2017-09-29T04:10:11.081Z,39.67
2017-09-29T04:12:38.605Z,48.07
2017-09-29T04:15:06.148Z,49.97
2017-09-29T04:17:33.657Z,51.28
2017-09-29T04:20:01.851Z,50.28
2017-09-29T04:22:29.365Z,44.90
2017-09-29T04:24:56.958Z,45.43
2017-09-29T04:27:24.640Z,40.43
2017-09-29T04:29:52.966Z,48.93
2017-09-29T04:32:22.043Z,41.20
2017-09-29T04:34:49.623Z,37.10
2017-09-29T04:37:17.695Z,40.63
2017-09-29T04:39:48.609Z,46.47
2017-09-29T04:42:16.999Z,53.80
2017-09-29T04:44:44.707Z,32.70
2017-09-29T04:47:12.218Z,35.40
2017-09-29T04:49:40.660Z,37.40
2017-09-29T04:52:12.031Z,38.87
2017-09-29T04:54:39.544Z,34.13
2017-09-29T04:57:07.155Z,39.35
2017-09-29T04:59:36.368Z,44.33
2017-09-29T05:02:03.910Z,40.25
2017-09-29T05:04:31.416Z,42.57
2017-09-29T05:06:59.006Z,50.67
2017-09-29T05:09:27.326Z,44.67
2017-09-29T05:14:29.075Z,48.38
2017-09-29T05:16:56.787Z,49.78
2017-09-29T05:19:24.490Z,47.25
2017-09-29T05:21:52.011Z,46.10
2017-09-29T05:24:20.928Z,40.20
2017-09-29T05:26:48.802Z,52.40
2017-09-29T05:29:16.311Z,44.47
2017-09-29T05:31:48.274Z,41.22
2017-09-29T05:34:15.908Z,44.08
2017-09-29T05:36:43.431Z,52.00
2017-09-29T05:39:10.959Z,45.70
2017-09-29T05:41:38.554Z,48.05
2017-09-29T05:44:06.395Z,41.30
2017-09-29T05:46:33.947Z,49.13
2017-09-29T05:49:01.667Z,45.42
2017-09-29T05:51:29.441Z,41.50
2017-09-29T05:53:56.964Z,52.50
2017-09-29T05:56:25.247Z,49.53
2017-09-29T05:58:54.274Z,39.72
2017-09-29T06:01:21.792Z,43.63
2017-09-29T06:03:50.112Z,45.00
2017-09-29T06:06:17.938Z,40.72
2017-09-29T06:08:46.238Z,43.50
2017-09-29T06:11:13.766Z,40.13
2017-09-29T06:13:43.002Z,38.33
2017-09-29T06:16:10.547Z,42.13
2017-09-29T06:18:38.630Z,40.47
2017-09-29T06:21:06.623Z,45.83
2017-09-29T06:23:34.952Z,39.08
2017-09-29T06:26:05.809Z,42.70
2017-09-29T06:28:33.376Z,41.30
2017-09-29T06:31:02.628Z,34.38
2017-09-29T06:33:31.816Z,37.60
2017-09-29T06:35:59.367Z,39.93
2017-09-29T06:38:27.475Z,48.03
2017-09-29T06:40:55.756Z,37.63
2017-09-29T06:43:23.273Z,41.77
2017-09-29T06:45:50.832Z,39.97
2017-09-29T06:48:19.120Z,44.65
2017-09-29T06:50:46.649Z,45.40
2017-09-29T06:53:14.989Z,45.23
2017-09-29T06:55:42.552Z,45.73
2017-09-29T06:58:10.419Z,38.47
2017-09-29T07:00:37.945Z,37.00
2017-09-29T07:03:07.192Z,36.35
2017-09-29T07:05:35.631Z,37.77
2017-09-29T07:08:03.968Z,43.47
2017-09-29T07:10:35.214Z,40.63
2017-09-29T07:13:02.844Z,35.65
2017-09-29T07:15:31.648Z,38.58
2017-09-29T07:17:59.593Z,45.30
2017-09-29T07:20:27.107Z,42.00
2017-09-29T07:22:54.616Z,39.00
2017-09-29T07:25:28.155Z,41.87
2017-09-29T07:27:57.844Z,41.17
2017-09-29T07:30:29.339Z,39.72
2017-09-29T07:32:56.875Z,36.60
2017-09-29T07:35:24.676Z,36.40
2017-09-29T07:37:52.232Z,38.92
2017-09-29T07:40:21.446Z,43.40
2017-09-29T07:42:49.004Z,41.10
2017-09-29T07:45:17.274Z,43.93
2017-09-29T07:47:44.825Z,37.20
2017-09-29T07:50:13.147Z,42.33
2017-09-29T07:52:40.682Z,36.37
2017-09-29T07:55:08.468Z,42.43
2017-09-29T07:57:36.075Z,48.47
2017-09-29T08:00:03.592Z,39.17
2017-09-29T08:02:31.144Z,36.43
2017-09-29T08:05:00.399Z,40.47
2017-09-29T08:07:28.739Z,43.83
2017-09-29T08:09:56.251Z,41.70
2017-09-29T08:12:25.425Z,38.85
2017-09-29T08:14:52.972Z,46.20
2017-09-29T08:17:20.733Z,44.97
2017-09-29T08:19:49.364Z,34.13
2017-09-29T08:22:16.887Z,39.70
2017-09-29T08:24:44.455Z,45.20
2017-09-29T08:27:11.971Z,50.07
2017-09-29T08:29:39.810Z,44.43
2017-09-29T08:32:07.579Z,39.13
2017-09-29T08:34:35.096Z,40.17
2017-09-29T08:37:02.627Z,41.90
2017-09-29T08:39:30.970Z,41.77
2017-09-29T08:41:58.643Z,48.20
2017-09-29T08:44:26.406Z,39.37
2017-09-29T08:46:54.125Z,43.60
2017-09-29T08:49:21.818Z,38.95
2017-09-29T08:51:50.303Z,41.93
2017-09-29T08:54:17.855Z,46.90
2017-09-29T08:56:47.068Z,45.78
2017-09-29T08:59:14.571Z,40.00
2017-09-29T09:01:42.193Z,47.07
2017-09-29T09:04:09.767Z,38.30
2017-09-29T09:06:37.283Z,41.63
2017-09-29T09:09:06.967Z,41.37
2017-09-29T09:11:34.492Z,40.97
2017-09-29T09:14:05.412Z,42.17
2017-09-29T09:16:32.925Z,44.00
2017-09-29T09:19:00.886Z,52.15
2017-09-29T09:21:28.510Z,44.23
2017-09-29T09:23:56.167Z,43.17
2017-09-29T09:26:23.810Z,37.20
2017-09-29T09:28:51.330Z,43.53
2017-09-29T09:31:19.788Z,52.85
2017-09-29T09:33:47.343Z,47.63
2017-09-29T09:36:14.856Z,40.53
2017-09-29T09:38:42.414Z,43.00
2017-09-29T09:41:09.928Z,42.30
2017-09-29T09:43:40.426Z,39.93
2017-09-29T09:46:07.935Z,40.23
2017-09-29T09:48:35.496Z,48.47
2017-09-29T09:51:03.713Z,49.92
2017-09-29T09:53:31.263Z,50.93
2017-09-29T09:55:59.543Z,41.30
2017-09-29T09:58:27.066Z,40.87
2017-09-29T10:00:54.612Z,44.75
2017-09-29T10:03:23.144Z,39.53
2017-09-29T10:05:50.718Z,43.25
2017-09-29T10:08:18.404Z,35.40
2017-09-29T10:10:46.140Z,40.97
2017-09-29T10:13:13.774Z,42.23
2017-09-29T10:15:45.195Z,46.17
2017-09-29T10:18:12.703Z,40.90
2017-09-29T10:20:40.580Z,39.50
2017-09-29T10:23:08.459Z,50.40
2017-09-29T10:25:42.714Z,45.06
2017-09-29T10:28:10.593Z,60.90
2017-09-29T10:30:39.878Z,34.97
2017-09-29T10:33:08.358Z,39.90
2017-09-29T10:35:35.860Z,43.63
2017-09-29T10:38:03.480Z,40.28
2017-09-29T10:40:31.039Z,44.30
2017-09-29T10:42:58.743Z,40.63
2017-09-29T10:45:26.634Z,52.25
2017-09-29T10:47:54.564Z,46.07
2017-09-29T10:50:22.408Z,38.50
2017-09-29T10:52:49.912Z,41.43
2017-09-29T10:55:18.235Z,40.25
2017-09-29T10:57:46.651Z,39.38
2017-09-29T11:00:14.343Z,40.50
2017-09-29T11:02:41.859Z,39.20
2017-09-29T11:05:11.377Z,44.60
2017-09-29T11:07:38.957Z,42.50
2017-09-29T11:10:06.518Z,43.70
2017-09-29T11:12:34.035Z,45.63
2017-09-29T11:15:01.567Z,46.10
2017-09-29T11:17:29.719Z,39.78
2017-09-29T11:19:57.257Z,41.63
2017-09-29T11:22:24.839Z,43.80
2017-09-29T11:24:52.427Z,39.57
2017-09-29T11:27:19.940Z,48.83
2017-09-29T11:29:47.912Z,38.78
2017-09-29T11:32:18.344Z,38.67
2017-09-29T11:34:46.100Z,41.45
2017-09-29T11:37:13.821Z,39.20
2017-09-29T11:39:41.351Z,40.33
2017-09-29T11:42:08.934Z,42.33
2017-09-29T11:44:36.599Z,40.97
2017-09-29T11:47:04.160Z,40.60
2017-09-29T11:49:32.505Z,37.20
2017-09-29T11:52:00.456Z,44.27
2017-09-29T11:54:27.986Z,42.43
2017-09-29T11:56:57.275Z,38.73
2017-09-29T11:59:25.695Z,39.20
2017-09-29T12:01:53.643Z,44.50
2017-09-29T12:04:21.759Z,37.73
2017-09-29T12:06:49.267Z,44.33
2017-09-29T12:09:17.580Z,41.25
2017-09-29T12:11:46.011Z,44.40
2017-09-29T12:14:14.322Z,43.25
2017-09-29T12:16:41.862Z,37.70
2017-09-29T12:19:09.441Z,41.80
2017-09-29T12:21:36.993Z,41.28
2017-09-29T12:24:04.684Z,41.97
2017-09-29T12:26:32.228Z,45.57
2017-09-29T12:29:00.729Z,36.70
2017-09-29T12:31:28.253Z,47.30
2017-09-29T12:33:55.803Z,34.90
2017-09-29T12:36:23.362Z,39.13
2017-09-29T12:38:51.128Z,31.73
2017-09-29T12:41:21.271Z,39.53
2017-09-29T12:43:50.253Z,40.30
2017-09-29T12:46:21.088Z,34.40
2017-09-29T12:48:48.616Z,32.48
2017-09-29T12:51:17.368Z,36.07
2017-09-29T12:53:44.963Z,36.83
2017-09-29T12:56:12.486Z,33.50
2017-09-29T12:58:40.003Z,38.43
2017-09-29T13:01:07.725Z,34.43
2017-09-29T13:03:35.234Z,33.63
2017-09-29T13:06:03.299Z,33.30
2017-09-29T13:08:30.820Z,35.42
2017-09-29T13:10:58.339Z,31.20
2017-09-29T13:13:25.890Z,35.90
2017-09-29T13:15:53.448Z,34.30
2017-09-29T13:18:21.036Z,35.80
2017-09-29T13:20:48.555Z,30.53
2017-09-29T13:23:16.122Z,34.30
2017-09-29T13:25:43.639Z,29.80
2017-09-29T13:28:11.763Z,33.00
2017-09-29T13:30:39.383Z,36.33
2017-09-29T13:33:07.660Z,36.60
2017-09-29T13:35:35.471Z,34.90
2017-09-29T13:38:03.015Z,36.63
2017-09-29T13:40:30.525Z,29.87
2017-09-29T13:42:58.418Z,36.03
2017-09-29T13:45:25.928Z,29.43
2017-09-29T13:47:53.457Z,38.22
2017-09-29T13:50:21.012Z,42.90
2017-09-29T13:52:48.525Z,37.77
2017-09-29T13:55:16.226Z,33.47
2017-09-29T13:57:44.548Z,38.20
2017-09-29T14:00:12.106Z,34.23
2017-09-29T14:02:40.965Z,37.60
2017-09-29T14:05:08.947Z,32.67
2017-09-29T14:07:36.478Z,41.83
2017-09-29T14:10:04.024Z,34.20
2017-09-29T14:12:31.559Z,30.27
2017-09-29T14:14:59.115Z,34.25
2017-09-29T14:17:26.621Z,34.80
2017-09-29T14:19:54.616Z,33.30
2017-09-29T14:22:22.416Z,43.63
2017-09-29T14:24:50.139Z,29.47
2017-09-29T14:27:17.698Z,37.30
2017-09-29T14:29:45.597Z,37.27
2017-09-29T14:32:20.096Z,37.80
2017-09-29T14:34:48.273Z,39.60
2017-09-29T14:37:15.831Z,42.63
2017-09-29T14:39:43.734Z,39.87
2017-09-29T14:42:11.238Z,43.40
2017-09-29T14:44:39.282Z,37.87
2017-09-29T14:47:11.369Z,34.55
2017-09-29T14:49:39.179Z,40.78
2017-09-29T14:52:07.534Z,36.83
2017-09-29T14:54:35.172Z,35.07
2017-09-29T14:57:02.727Z,32.37
2017-09-29T14:59:30.244Z,38.78
2017-09-29T15:01:58.033Z,33.83
2017-09-29T15:04:27.279Z,32.87
2017-09-29T15:06:54.968Z,38.27
2017-09-29T15:09:22.487Z,33.80
2017-09-29T15:11:50.027Z,36.97
2017-09-29T15:14:17.530Z,33.30
2017-09-29T15:16:46.015Z,33.60
2017-09-29T15:19:13.532Z,38.28
2017-09-29T15:21:41.065Z,32.60
2017-09-29T15:24:09.696Z,35.00
2017-09-29T15:26:37.854Z,40.03
2017-09-29T15:29:05.414Z,37.53
2017-09-29T15:31:32.969Z,42.90
2017-09-29T15:34:00.475Z,34.73
2017-09-29T15:36:28.060Z,39.92
2017-09-29T15:38:55.647Z,40.77
2017-09-29T15:41:23.735Z,37.70
2017-09-29T15:43:51.324Z,41.83
2017-09-29T15:46:18.841Z,42.40
2017-09-29T15:48:46.371Z,39.30
2017-09-29T15:51:14.159Z,34.10
2017-09-29T15:53:41.667Z,38.08
2017-09-29T15:56:09.235Z,39.97
2017-09-29T15:58:37.145Z,32.90
2017-09-29T16:01:04.678Z,35.80
2017-09-29T16:03:36.052Z,32.50
2017-09-29T16:06:03.566Z,38.72
2017-09-29T16:08:31.123Z,39.77
2017-09-29T16:10:58.634Z,44.10
2017-09-29T16:13:27.844Z,38.03
2017-09-29T16:15:55.408Z,44.75
2017-09-29T16:18:23.822Z,35.17
2017-09-29T16:20:51.887Z,32.50
2017-09-29T16:23:19.395Z,36.08
2017-09-29T16:25:46.980Z,35.87
2017-09-29T16:28:14.546Z,33.83
2017-09-29T16:30:42.378Z,36.87
2017-09-29T16:33:09.938Z,31.46
2017-09-29T16:35:37.453Z,38.07
2017-09-29T16:38:06.589Z,39.47
2017-09-29T16:40:34.148Z,39.00
2017-09-29T16:43:01.663Z,48.05
2017-09-29T16:45:30.255Z,41.72
2017-09-29T16:47:57.908Z,40.93
2017-09-29T16:50:25.431Z,45.57
2017-09-29T16:52:53.036Z,44.57
2017-09-29T16:55:21.522Z,42.78
2017-09-29T16:57:49.906Z,47.77
2017-09-29T17:00:17.457Z,47.70
2017-09-29T17:02:46.123Z,43.10
2017-09-29T17:05:17.220Z,44.67
2017-09-29T17:07:44.746Z,47.60
2017-09-29T17:10:13.925Z,42.97
2017-09-29T17:12:41.448Z,47.50
2017-09-29T17:15:09.887Z,49.08
2017-09-29T17:17:39.167Z,44.40
2017-09-29T17:20:06.731Z,39.55
2017-09-29T17:22:34.300Z,49.83
2017-09-29T17:25:01.864Z,41.50
2017-09-29T17:27:29.538Z,39.05
2017-09-29T17:29:57.064Z,49.13
2017-09-29T17:32:24.620Z,43.55
2017-09-29T17:34:57.482Z,40.27
2017-09-29T17:37:25.752Z,45.55
2017-09-29T17:39:53.682Z,45.50
2017-09-29T17:42:21.959Z,42.90
2017-09-29T17:44:49.476Z,38.67
2017-09-29T17:47:17.080Z,41.92
2017-09-29T17:49:44.623Z,42.10
2017-09-29T17:52:12.695Z,41.47
2017-09-29T17:54:40.299Z,45.67
2017-09-29T17:57:07.821Z,41.97
2017-09-29T17:59:35.479Z,52.90
2017-09-29T18:02:03.027Z,45.03
2017-09-29T18:04:30.576Z,50.15
2017-09-29T18:07:02.155Z,48.00
2017-09-29T18:09:30.856Z,37.47
2017-09-29T18:11:59.262Z,38.45
2017-09-29T18:14:27.951Z,40.70
2017-09-29T18:16:55.527Z,44.30
2017-09-29T18:19:23.029Z,42.83
2017-09-29T18:21:52.248Z,39.95
2017-09-29T18:24:19.787Z,35.42
2017-09-29T18:26:47.345Z,36.03
2017-09-29T18:29:16.536Z,34.20
2017-09-29T18:31:44.044Z,43.67
2017-09-29T18:34:11.595Z,38.70
2017-09-29T18:36:39.127Z,40.58
2017-09-29T18:39:07.573Z,39.33
2017-09-29T18:41:56.191Z,40.28
2017-09-29T18:47:28.466Z,40.67
2017-09-29T18:49:56.924Z,38.20
2017-09-29T18:52:25.432Z,43.17
2017-09-29T18:54:53.008Z,39.55
2017-09-29T18:57:20.544Z,32.87
2017-09-29T18:59:48.451Z,38.57
2017-09-29T19:02:15.995Z,39.93
2017-09-29T19:04:44.836Z,35.97
2017-09-29T19:07:12.622Z,35.07
2017-09-29T19:09:40.203Z,47.57
2017-09-29T19:12:09.355Z,38.53
2017-09-29T19:14:37.151Z,43.30
2017-09-29T19:17:04.710Z,35.00
2017-09-29T19:19:33.123Z,35.87
2017-09-29T19:22:04.180Z,37.40
2017-09-29T19:24:31.700Z,34.10
2017-09-29T19:26:59.204Z,36.57
2017-09-29T19:29:26.798Z,37.90
2017-09-29T19:31:54.346Z,43.97
2017-09-29T19:34:23.556Z,33.00
2017-09-29T19:36:58.776Z,33.13
2017-09-29T19:39:27.062Z,41.33
2017-09-29T19:41:54.623Z,38.35
2017-09-29T19:44:22.907Z,37.87
2017-09-29T19:46:50.423Z,33.17
2017-09-29T19:49:18.572Z,36.80
2017-09-29T19:51:46.071Z,30.90
2017-09-29T19:54:13.991Z,35.43
2017-09-29T19:56:41.500Z,40.77
2017-09-29T19:59:09.773Z,44.13
2017-09-29T20:01:37.878Z,42.22
2017-09-29T20:04:05.456Z,38.13
2017-09-29T20:06:32.966Z,41.05
2017-09-29T20:09:00.861Z,41.80
2017-09-29T20:11:28.389Z,38.72
2017-09-29T20:13:57.662Z,38.80
2017-09-29T20:16:25.225Z,53.80
2017-09-29T20:18:52.765Z,42.63
2017-09-29T20:21:20.315Z,46.80
2017-09-29T20:23:47.835Z,47.27
2017-09-29T20:26:19.807Z,46.08
2017-09-29T20:28:47.408Z,54.17
2017-09-29T20:31:15.143Z,35.97
2017-09-29T20:33:43.337Z,36.80
2017-09-29T20:36:11.227Z,28.35
2017-09-29T20:38:38.738Z,37.60
2017-09-29T20:41:06.296Z,35.40
2017-09-29T20:43:34.745Z,33.80
2017-09-29T20:46:02.258Z,39.07
2017-09-29T20:48:30.284Z,34.88
2017-09-29T20:50:57.799Z,35.67
2017-09-29T20:53:28.808Z,38.40
2017-09-29T20:55:56.332Z,32.10
2017-09-29T20:58:23.848Z,36.10
2017-09-29T21:00:51.436Z,33.37
2017-09-29T21:03:20.914Z,51.55
2017-09-29T21:05:48.934Z,40.10
2017-09-29T21:08:17.444Z,39.58
2017-09-29T21:10:45.114Z,31.15
2017-09-29T21:13:13.147Z,36.20
2017-09-29T21:15:40.717Z,39.05
2017-09-29T21:18:08.679Z,35.53
2017-09-29T21:20:36.202Z,46.87
2017-09-29T21:23:03.750Z,31.30
2017-09-29T21:25:31.283Z,30.53
2017-09-29T21:27:58.851Z,32.95
2017-09-29T21:30:26.368Z,37.37
2017-09-29T21:32:54.649Z,23.67
2017-09-29T21:35:22.540Z,25.20
2017-09-29T21:37:50.079Z,37.40
2017-09-29T21:40:17.903Z,29.10
2017-09-29T21:42:45.499Z,24.23
2017-09-29T21:45:13.779Z,16.27
2017-09-29T21:47:41.791Z,21.98
2017-09-29T21:50:09.304Z,21.83
2017-09-29T21:52:36.832Z,18.90
2017-09-29T21:55:08.580Z,22.80
2017-09-29T21:57:36.724Z,29.30
2017-09-29T22:00:04.355Z,29.48
2017-09-29T22:02:31.883Z,25.55
2017-09-29T22:04:59.444Z,27.08
2017-09-29T22:07:27.003Z,28.37
2017-09-29T22:09:54.510Z,19.73
2017-09-29T22:12:22.043Z,21.90
2017-09-29T22:14:50.518Z,32.53
2017-09-29T22:17:18.027Z,23.97
2017-09-29T22:19:45.562Z,28.83
2017-09-29T22:22:13.332Z,23.70
2017-09-29T22:24:44.480Z,32.93
2017-09-29T22:27:12.005Z,29.37
2017-09-29T22:29:41.127Z,25.50
2017-09-29T22:32:08.934Z,33.80
2017-09-29T22:34:36.800Z,25.07
2017-09-29T22:37:04.322Z,23.73
2017-09-29T22:39:31.848Z,29.60
2017-09-29T22:42:04.221Z,24.43
2017-09-29T22:44:31.736Z,23.07
2017-09-29T22:46:59.295Z,17.45
2017-09-29T22:49:27.041Z,15.48
2017-09-29T22:51:54.804Z,17.48
2017-09-29T22:54:22.674Z,15.60
2017-09-29T22:56:53.712Z,21.30
2017-09-29T22:59:21.222Z,17.00
2017-09-29T23:01:49.318Z,22.85
2017-09-29T23:04:16.875Z,19.70
2017-09-29T23:06:44.712Z,20.12
2017-09-29T23:09:12.248Z,25.23
2017-09-29T23:11:51.036Z,24.65
2017-09-29T23:14:18.549Z,23.07
2017-09-29T23:16:46.116Z,28.30
2017-09-29T23:19:15.442Z,29.12
2017-09-29T23:21:43.417Z,25.08
2017-09-29T23:24:11.056Z,18.87
2017-09-29T23:26:39.215Z,22.73
2017-09-29T23:29:06.931Z,15.57
2017-09-29T23:31:34.463Z,21.27
2017-09-29T23:34:02.739Z,23.67
2017-09-29T23:36:30.307Z,25.98
2017-09-29T23:38:58.625Z,20.30
2017-09-29T23:41:29.644Z,20.20
2017-09-29T23:43:57.163Z,22.80
2017-09-29T23:46:24.723Z,23.57
2017-09-29T23:48:53.968Z,24.10
2017-09-29T23:51:21.476Z,30.05
2017-09-29T23:53:49.974Z,25.43
2017-09-29T23:56:18.773Z,26.90
2017-09-29T23:58:46.308Z,27.58
